Etusivu
METAR-TAF:

METAR-TAF

Lentoasemat :

Touggourt, Algeria

Leveyspiiri: 33-07N, Pituuspiiri: 006-08E, korkeus merenpinnasta: 85 m

Tämänhetkinen sää

Tämä raportti tehtiin 43 minuuttia sitten, kello 11.00 UTC
Tuuli 6 kn lännestä/lounaasta
Lämpötila 36°C
Kosteus 12%
Ilmanpaine 1015 hPa
Näkyvyys 10 km tai enemmän
ei pilviä alle 1500 m:ssä eikä cumulonimbus-pilviä

METAR: DAUK 281100Z 24006KT CAVOK 36/02 Q1015

Aika: 12:43 (11:43 UTC)

Sääennuste

Tämä raportti tehtiin 3 tuntia ja 43 minuuttia sitten, kello 08.00 UTC
Ennuste voimassa 28. päivästä klo 09 UTC - 28. päivään klo 18 UTC
Tuuli 8 kn etelästä/lounaasta
Näkyvyys 10 km tai enemmän
ei pilviä alle 1500 m:ssä eikä cumulonimbus-pilviä

TAF: DAUK 280800Z 2809/2818 20008KT CAVOK

Säähavainnot ja -ennusteet yli 4000 lentoasemalta (METAR- ja TAF-raportit).

Käytössä olevat sääasemat on merkitty karttaan keltaisilla ja punaisilla pisteillä.

Aseta hiiri pisteen päälle nähdäksesi sääaseman nimen.

Klikkaa sitten nähdäksesi säähavainnot ja -ennusteet.

Kartan vaihtaminen: klikkaa mustalla rastilla varustettuja vihreitä pisteitä, niin voit zoomata sisään; viivalla varustettua vihreää pistettä, niin voit zoomata ulos tai vihreitä nuolia, niin pääset viereisille kartoille.


METAR-TAF: